createdAt,value
2024-01-20T00:00:05.886Z,98591.47
2024-01-20T00:02:33.989Z,98591.53
2024-01-20T00:05:02.473Z,98592.47
2024-01-20T00:07:33.394Z,98597.59
2024-01-20T00:10:01.847Z,98591.00
2024-01-20T00:12:31.500Z,98602.84
2024-01-20T00:14:59.743Z,98606.25
2024-01-20T00:17:29.265Z,98606.28
2024-01-20T00:19:58.174Z,98616.41
2024-01-20T00:22:26.390Z,98621.50
2024-01-20T00:24:59.901Z,98629.91
2024-01-20T00:27:28.336Z,98631.56
2024-01-20T00:29:56.547Z,98625.69
2024-01-20T00:32:25.194Z,98634.06
2024-01-20T00:35:03.991Z,98633.22
2024-01-20T00:37:35.359Z,98632.22
2024-01-20T00:40:06.888Z,98630.53
2024-01-20T00:42:35.250Z,98628.88
2024-01-20T00:45:04.060Z,98636.38
2024-01-20T00:47:32.790Z,98637.97
2024-01-20T00:50:05.111Z,98640.41
2024-01-20T00:52:33.322Z,98637.84
2024-01-20T00:55:01.420Z,98634.72
2024-01-20T00:57:30.970Z,98639.84
2024-01-20T00:59:59.137Z,98641.50
2024-01-20T01:02:28.166Z,98649.22
2024-01-20T01:04:56.357Z,98665.34
2024-01-20T01:07:24.627Z,98663.72
2024-01-20T01:09:52.911Z,98661.25
2024-01-20T01:12:21.138Z,98653.72
2024-01-20T01:14:50.762Z,98658.78
2024-01-20T01:17:19.184Z,98642.75
2024-01-20T01:19:47.523Z,98649.47
2024-01-20T01:22:16.005Z,98641.13
2024-01-20T01:24:44.101Z,98652.94
2024-01-20T01:27:12.287Z,98661.44
2024-01-20T01:29:40.438Z,98658.06
2024-01-20T01:32:10.029Z,98659.78
2024-01-20T01:34:38.669Z,98658.88
2024-01-20T01:37:06.907Z,98663.09
2024-01-20T01:39:35.028Z,98671.53
2024-01-20T01:42:03.189Z,98672.28
2024-01-20T01:44:31.326Z,98670.44
2024-01-20T01:46:59.445Z,98674.69
2024-01-20T01:49:29.360Z,98682.34
2024-01-20T01:51:57.997Z,98690.81
2024-01-20T01:54:27.583Z,98691.75
2024-01-20T01:57:01.021Z,98699.31
2024-01-20T01:59:30.844Z,98696.84
2024-01-20T02:01:59.010Z,98694.25
2024-01-20T02:04:28.886Z,98693.56
2024-01-20T02:06:57.704Z,98695.25
2024-01-20T02:09:27.266Z,98689.50
2024-01-20T02:11:56.171Z,98692.84
2024-01-20T02:14:24.517Z,98691.13
2024-01-20T02:16:52.713Z,98692.78
2024-01-20T02:19:20.845Z,98695.31
2024-01-20T02:21:50.332Z,98698.63
2024-01-20T02:24:19.817Z,98694.22
2024-01-20T02:26:48.218Z,98699.25
2024-01-20T02:29:16.396Z,98702.72
2024-01-20T02:31:44.546Z,98710.34
2024-01-20T02:34:12.722Z,98709.50
2024-01-20T02:36:40.954Z,98705.41
2024-01-20T02:39:09.108Z,98709.78
2024-01-20T02:41:38.635Z,98703.13
2024-01-20T02:44:09.390Z,98697.94
2024-01-20T02:46:37.492Z,98699.44
2024-01-20T02:49:06.265Z,98690.94
2024-01-20T02:51:34.576Z,98699.44
2024-01-20T02:54:02.806Z,98697.78
2024-01-20T02:56:31.045Z,98692.38
2024-01-20T02:59:00.693Z,98706.00
2024-01-20T03:01:28.841Z,98697.78
2024-01-20T03:03:57.082Z,98695.44
2024-01-20T03:06:25.326Z,98698.06
2024-01-20T03:08:53.559Z,98692.22
2024-01-20T03:11:21.745Z,98701.34
2024-01-20T03:13:49.974Z,98699.53
2024-01-20T03:16:19.717Z,98698.59
2024-01-20T03:18:47.966Z,98698.59
2024-01-20T03:21:16.121Z,98693.56
2024-01-20T03:23:44.533Z,98709.56
2024-01-20T03:26:13.000Z,98715.38
2024-01-20T03:28:42.039Z,98727.09
2024-01-20T03:31:10.180Z,98735.53
2024-01-20T03:33:39.753Z,98725.44
2024-01-20T03:36:08.581Z,98724.59
2024-01-20T03:38:36.809Z,98720.53
2024-01-20T03:41:05.378Z,98728.63
2024-01-20T03:43:33.517Z,98733.78
2024-01-20T03:46:01.657Z,98738.69
2024-01-20T03:48:30.478Z,98740.53
2024-01-20T03:51:00.091Z,98736.16
2024-01-20T03:53:28.238Z,98733.66
2024-01-20T03:55:56.394Z,98734.66
2024-01-20T03:58:24.604Z,98736.38
2024-01-20T04:00:52.746Z,98733.91
2024-01-20T04:03:21.025Z,98741.41
2024-01-20T04:05:49.214Z,98747.22
2024-01-20T04:08:18.711Z,98743.03
2024-01-20T04:10:46.899Z,98746.31
2024-01-20T04:13:15.024Z,98746.41
2024-01-20T04:15:44.729Z,98743.06
2024-01-20T04:18:13.196Z,98739.63
2024-01-20T04:20:41.407Z,98736.16
2024-01-20T04:23:09.513Z,98736.16
2024-01-20T04:25:38.993Z,98734.59
2024-01-20T04:28:07.388Z,98732.13
2024-01-20T04:30:35.552Z,98732.19
2024-01-20T04:33:03.894Z,98734.75
2024-01-20T04:35:32.088Z,98738.00
2024-01-20T04:38:00.196Z,98743.00
2024-01-20T04:40:28.291Z,98751.38
2024-01-20T04:42:57.761Z,98758.09
2024-01-20T04:45:25.892Z,98768.88
2024-01-20T04:47:54.046Z,98773.84
2024-01-20T04:50:22.296Z,98778.03
2024-01-20T04:52:50.395Z,98781.41
2024-01-20T04:55:18.534Z,98780.78
2024-01-20T04:57:46.640Z,98778.38
2024-01-20T05:00:17.213Z,98785.16
2024-01-20T05:02:45.338Z,98785.91
2024-01-20T05:05:13.484Z,98789.25
2024-01-20T05:07:41.626Z,98790.22
2024-01-20T05:10:10.823Z,98789.38
2024-01-20T05:12:38.991Z,98799.41
2024-01-20T05:15:11.989Z,98806.06
2024-01-20T05:17:41.775Z,98801.78
2024-01-20T05:20:15.005Z,98802.63
2024-01-20T05:22:43.299Z,98807.63
2024-01-20T05:25:11.441Z,98802.63
2024-01-20T05:27:39.720Z,98818.66
2024-01-20T05:30:10.005Z,98815.19
2024-01-20T05:32:43.058Z,98823.56
2024-01-20T05:35:12.302Z,98824.72
2024-01-20T05:37:40.658Z,98834.94
2024-01-20T05:40:10.712Z,98827.41
2024-01-20T05:42:38.889Z,98834.94
2024-01-20T05:45:10.432Z,98823.97
2024-01-20T05:47:38.810Z,98835.78
2024-01-20T05:50:09.934Z,98839.28
2024-01-20T05:52:38.053Z,98844.56
2024-01-20T05:55:07.541Z,98847.16
2024-01-20T05:57:35.710Z,98851.44
2024-01-20T06:00:04.551Z,98848.06
2024-01-20T06:02:33.436Z,98848.97
2024-01-20T06:05:01.642Z,98853.06
2024-01-20T06:07:31.181Z,98865.47
2024-01-20T06:09:59.329Z,98868.72
2024-01-20T06:12:27.496Z,98877.00
2024-01-20T06:14:55.833Z,98877.72
2024-01-20T06:17:24.040Z,98884.38
2024-01-20T06:19:52.169Z,98884.28
2024-01-20T06:22:20.312Z,98888.66
2024-01-20T06:24:49.761Z,98892.94
2024-01-20T06:27:17.890Z,98887.84
2024-01-20T06:29:46.031Z,98887.84
2024-01-20T06:32:14.187Z,98887.00
2024-01-20T06:34:42.489Z,98876.94
2024-01-20T06:37:10.708Z,98877.88
2024-01-20T06:39:40.255Z,98868.06
2024-01-20T06:42:10.262Z,98875.78
2024-01-20T06:44:38.722Z,98881.63
2024-01-20T06:47:08.174Z,98873.16
2024-01-20T06:49:39.788Z,98888.09
2024-01-20T06:52:08.714Z,98884.63
2024-01-20T06:54:36.871Z,98893.00
2024-01-20T06:57:05.669Z,98898.03
2024-01-20T06:59:35.214Z,98900.50
2024-01-20T07:02:03.313Z,98906.38
2024-01-20T07:04:32.002Z,98907.19
2024-01-20T07:07:00.319Z,98910.56
2024-01-20T07:09:28.429Z,98910.59
2024-01-20T07:11:58.928Z,98911.66
2024-01-20T07:14:27.476Z,98924.28
2024-01-20T07:16:56.960Z,98923.53
2024-01-20T07:19:25.090Z,98932.84
2024-01-20T07:21:53.284Z,98933.69
2024-01-20T07:24:21.436Z,98935.91
2024-01-20T07:26:49.552Z,98935.00
2024-01-20T07:29:17.835Z,98932.59
2024-01-20T07:31:45.936Z,98928.41
2024-01-20T07:34:15.570Z,98933.56
2024-01-20T07:36:43.810Z,98936.94
2024-01-20T07:39:12.015Z,98938.66
2024-01-20T07:41:40.481Z,98938.75
2024-01-20T07:44:08.595Z,98940.44
2024-01-20T07:46:36.715Z,98943.75
2024-01-20T07:49:05.005Z,98946.16
2024-01-20T07:51:34.680Z,98946.00
2024-01-20T07:54:02.901Z,98947.44
2024-01-20T07:56:31.065Z,98948.06
2024-01-20T07:58:59.234Z,98952.41
2024-01-20T08:01:27.424Z,98962.44
2024-01-20T08:03:55.873Z,98964.94
2024-01-20T08:06:24.059Z,98960.75
2024-01-20T08:08:53.541Z,98957.47
2024-01-20T08:11:23.215Z,98961.72
2024-01-20T08:13:51.465Z,98976.03
2024-01-20T08:16:19.615Z,98977.75
2024-01-20T08:18:47.838Z,98982.75
2024-01-20T08:21:16.113Z,98987.78
2024-01-20T08:23:44.260Z,98982.78
2024-01-20T08:26:13.979Z,98995.53
2024-01-20T08:28:42.161Z,98988.94
2024-01-20T08:31:10.623Z,98987.19
2024-01-20T08:33:38.997Z,98990.50
2024-01-20T08:36:08.738Z,98985.41
2024-01-20T08:38:38.006Z,98986.13
2024-01-20T08:41:10.198Z,98977.72
2024-01-20T08:43:44.881Z,98982.50
2024-01-20T08:46:13.768Z,98982.94
2024-01-20T08:48:42.705Z,98979.88
2024-01-20T08:51:11.412Z,98983.66
2024-01-20T08:53:40.514Z,98988.56
2024-01-20T08:56:08.930Z,98992.72
2024-01-20T08:58:37.173Z,98990.13
2024-01-20T09:01:08.739Z,98990.88
2024-01-20T09:03:37.053Z,98991.56
2024-01-20T09:06:06.517Z,98996.72
2024-01-20T09:08:34.667Z,99008.47
2024-01-20T09:11:02.874Z,98992.63
2024-01-20T09:13:31.016Z,98989.47
2024-01-20T09:15:59.208Z,98990.31
2024-01-20T09:18:28.987Z,98982.91
2024-01-20T09:20:57.250Z,98983.66
2024-01-20T09:23:25.462Z,98986.69
2024-01-20T09:25:53.621Z,98991.47
2024-01-20T09:28:21.740Z,99003.47
2024-01-20T09:30:49.889Z,99013.50
2024-01-20T09:33:18.081Z,99011.44
2024-01-20T09:35:48.151Z,99012.09
2024-01-20T09:38:16.270Z,99015.84
2024-01-20T09:40:44.399Z,99009.34
2024-01-20T09:43:13.261Z,99006.22
2024-01-20T09:45:41.901Z,99016.94
2024-01-20T09:48:10.454Z,99018.44
2024-01-20T09:50:38.923Z,99025.50
2024-01-20T09:53:17.097Z,99029.69
2024-01-20T09:55:47.413Z,99030.88
2024-01-20T09:58:17.802Z,99035.28
2024-01-20T10:00:46.387Z,99030.63
2024-01-20T10:03:18.201Z,99024.88
2024-01-20T10:05:46.455Z,99027.13
2024-01-20T10:08:15.951Z,99030.19
2024-01-20T10:10:44.038Z,99023.09
2024-01-20T10:13:12.313Z,99035.38
2024-01-20T10:15:40.510Z,99032.56
2024-01-20T10:18:11.750Z,99033.66
2024-01-20T10:20:40.287Z,99040.41
2024-01-20T10:23:09.431Z,99030.19
2024-01-20T10:25:38.988Z,99035.53
2024-01-20T10:28:09.107Z,99035.41
2024-01-20T10:30:40.429Z,99032.69
2024-01-20T10:33:11.328Z,99030.94
2024-01-20T10:35:40.135Z,99031.84
2024-01-20T10:38:14.731Z,99025.88
2024-01-20T10:40:46.314Z,99026.09
2024-01-20T10:43:17.636Z,99018.75
2024-01-20T10:45:53.817Z,99004.41
2024-01-20T10:48:28.926Z,99013.75
2024-01-20T10:51:01.215Z,99009.19
2024-01-20T10:53:30.237Z,99011.41
2024-01-20T10:56:01.541Z,99010.34
2024-01-20T10:58:35.454Z,99004.53
2024-01-20T11:01:06.126Z,99005.28
2024-01-20T11:03:35.213Z,99002.72
2024-01-20T11:06:05.332Z,98993.72
2024-01-20T11:08:33.623Z,98992.19
2024-01-20T11:11:03.125Z,98983.81
2024-01-20T11:13:32.416Z,98985.53
2024-01-20T11:16:00.536Z,98992.59
2024-01-20T11:18:29.160Z,98994.13
2024-01-20T11:21:02.596Z,98988.81
2024-01-20T11:23:31.891Z,98982.50
2024-01-20T11:26:12.442Z,98979.63
2024-01-20T11:28:45.257Z,98990.38
2024-01-20T11:31:20.844Z,98980.72
2024-01-20T11:33:49.614Z,98972.41
2024-01-20T11:36:18.155Z,98970.22
2024-01-20T11:38:47.576Z,98965.53
2024-01-20T11:41:19.720Z,98970.38
2024-01-20T11:43:48.162Z,98982.63
2024-01-20T11:46:16.824Z,98988.84
2024-01-20T11:48:48.341Z,98980.28
2024-01-20T11:51:16.828Z,98971.63
2024-01-20T11:53:46.638Z,98977.47
2024-01-20T11:56:18.847Z,98967.25
2024-01-20T11:58:47.023Z,98966.97
2024-01-20T12:01:15.673Z,98971.25
2024-01-20T12:03:44.614Z,98972.06
2024-01-20T12:06:16.609Z,98968.44
2024-01-20T12:08:46.891Z,98966.44
2024-01-20T12:11:20.982Z,98965.03
2024-01-20T12:13:49.677Z,98952.31
2024-01-20T12:16:18.802Z,98943.28
2024-01-20T12:18:47.328Z,98931.16
2024-01-20T12:21:15.566Z,98925.38
2024-01-20T12:23:43.690Z,98929.69
2024-01-20T12:26:15.644Z,98910.97
2024-01-20T12:28:47.933Z,98911.72
2024-01-20T12:31:19.267Z,98913.75
2024-01-20T12:33:49.719Z,98898.03
2024-01-20T12:36:18.168Z,98897.44
2024-01-20T12:38:47.017Z,98900.72
2024-01-20T12:41:15.377Z,98894.81
2024-01-20T12:43:48.342Z,98902.25
2024-01-20T12:46:16.948Z,98889.91
2024-01-20T12:48:45.266Z,98886.34
2024-01-20T12:51:14.000Z,98876.50
2024-01-20T12:53:42.312Z,98877.63
2024-01-20T12:56:10.464Z,98866.34
2024-01-20T12:58:38.555Z,98865.88
2024-01-20T13:01:08.883Z,98870.50
2024-01-20T13:03:37.074Z,98866.03
2024-01-20T13:06:05.571Z,98861.00
2024-01-20T13:08:34.795Z,98863.03
2024-01-20T13:11:02.917Z,98853.38
2024-01-20T13:13:31.050Z,98846.53
2024-01-20T13:15:59.267Z,98845.19
2024-01-20T13:18:28.874Z,98837.88
2024-01-20T13:20:57.089Z,98833.09
2024-01-20T13:23:25.210Z,98829.16
2024-01-20T13:25:55.661Z,98825.91
2024-01-20T13:28:24.855Z,98832.56
2024-01-20T13:30:54.342Z,98831.22
2024-01-20T13:33:24.130Z,98839.72
2024-01-20T13:35:53.922Z,98845.38
2024-01-20T13:38:22.443Z,98859.53
2024-01-20T13:40:51.924Z,98861.31
2024-01-20T13:43:20.031Z,98856.84
2024-01-20T13:45:48.507Z,98858.47
2024-01-20T13:48:16.934Z,98856.91
2024-01-20T13:50:45.074Z,98861.69
2024-01-20T13:53:14.578Z,98862.94
2024-01-20T13:55:42.748Z,98851.56
2024-01-20T13:58:11.717Z,98847.59
2024-01-20T14:00:41.033Z,98847.09
2024-01-20T14:03:09.351Z,98848.69
2024-01-20T14:05:37.607Z,98843.63
2024-01-20T14:08:06.744Z,98848.06
2024-01-20T14:10:36.214Z,98855.63
2024-01-20T14:13:05.257Z,98858.88
2024-01-20T14:15:33.641Z,98867.78
2024-01-20T14:18:01.924Z,98866.28
2024-01-20T14:20:30.061Z,98871.41
2024-01-20T14:22:58.170Z,98876.75
2024-01-20T14:25:26.280Z,98867.97
2024-01-20T14:27:58.141Z,98872.28
2024-01-20T14:30:26.293Z,98879.53
2024-01-20T14:32:54.524Z,98876.22
2024-01-20T14:35:22.800Z,98882.78
2024-01-20T14:37:51.570Z,98871.41
2024-01-20T14:40:19.740Z,98872.88
2024-01-20T14:42:48.113Z,98880.13
2024-01-20T14:45:19.417Z,98885.94
2024-01-20T14:47:47.688Z,98890.56
2024-01-20T14:50:15.822Z,98882.59
2024-01-20T14:52:43.941Z,98892.16
2024-01-20T14:55:12.238Z,98885.88
2024-01-20T14:57:40.418Z,98891.22
2024-01-20T15:00:10.482Z,98894.84
2024-01-20T15:02:40.084Z,98886.56
2024-01-20T15:05:09.762Z,98892.59
2024-01-20T15:07:37.934Z,98890.28
2024-01-20T15:10:07.330Z,98895.53
2024-01-20T15:12:35.466Z,98889.03
2024-01-20T15:15:03.958Z,98886.69
2024-01-20T15:17:32.180Z,98882.78
2024-01-20T15:20:01.725Z,98883.91
2024-01-20T15:22:29.881Z,98889.25
2024-01-20T15:24:58.034Z,98886.09
2024-01-20T15:27:26.160Z,98886.22
2024-01-20T15:29:54.667Z,98888.09
2024-01-20T15:32:24.727Z,98893.38
2024-01-20T15:34:52.959Z,98899.38
2024-01-20T15:37:22.579Z,98895.38
2024-01-20T15:39:50.786Z,98903.97
2024-01-20T15:42:19.275Z,98897.28
2024-01-20T15:44:47.407Z,98903.50
2024-01-20T15:47:15.556Z,98909.72
2024-01-20T15:49:44.974Z,98913.34
2024-01-20T15:52:13.369Z,98908.53
2024-01-20T15:54:42.937Z,98911.19
2024-01-20T15:57:11.080Z,98919.78
2024-01-20T15:59:39.213Z,98917.41
2024-01-20T16:02:07.678Z,98921.00
2024-01-20T16:04:35.878Z,98924.53
2024-01-20T16:07:04.740Z,98933.13
2024-01-20T16:09:34.093Z,98928.97
2024-01-20T16:12:05.467Z,98935.84
2024-01-20T16:14:34.404Z,98932.66
2024-01-20T16:17:02.883Z,98936.19
2024-01-20T16:19:31.195Z,98938.88
2024-01-20T16:21:59.821Z,98945.81
2024-01-20T16:24:27.952Z,98948.22
2024-01-20T16:26:56.584Z,98948.06
2024-01-20T16:29:26.044Z,98960.59
2024-01-20T16:31:54.208Z,98960.59
2024-01-20T16:34:23.327Z,98962.53
2024-01-20T16:36:51.843Z,98969.56
2024-01-20T16:39:20.011Z,98973.06
2024-01-20T16:41:48.211Z,98970.56
2024-01-20T16:44:16.320Z,98969.75
2024-01-20T16:46:53.426Z,98964.72
2024-01-20T16:49:22.130Z,98969.81
2024-01-20T16:51:50.437Z,98967.50
2024-01-20T16:54:18.618Z,98966.81
2024-01-20T16:56:46.747Z,98966.09
2024-01-20T16:59:15.116Z,98969.50
2024-01-20T17:01:43.242Z,98965.28
2024-01-20T17:04:12.766Z,98969.56
2024-01-20T17:06:41.084Z,98966.16
2024-01-20T17:09:10.059Z,98970.38
2024-01-20T17:11:38.320Z,98967.00
2024-01-20T17:14:06.426Z,98964.44
2024-01-20T17:16:35.270Z,98967.88
2024-01-20T17:19:04.720Z,98964.69
2024-01-20T17:21:35.047Z,98968.16
2024-01-20T17:24:03.311Z,98966.59
2024-01-20T17:26:32.049Z,98966.66
2024-01-20T17:29:01.500Z,98974.28
2024-01-20T17:31:33.932Z,98970.97
2024-01-20T17:34:04.453Z,98982.84
2024-01-20T17:36:34.312Z,98979.53
2024-01-20T17:39:03.772Z,98981.28
2024-01-20T17:41:31.968Z,98979.66
2024-01-20T17:44:00.098Z,98976.41
2024-01-20T17:46:28.237Z,98974.78
2024-01-20T17:48:56.473Z,98984.91
2024-01-20T17:51:24.662Z,98981.53
2024-01-20T17:53:54.309Z,98977.38
2024-01-20T17:56:23.054Z,98984.94
2024-01-20T17:58:51.204Z,98979.03
2024-01-20T18:01:19.858Z,98988.22
2024-01-20T18:03:48.075Z,98983.16
2024-01-20T18:06:17.454Z,98978.88
2024-01-20T18:08:46.627Z,98979.72
2024-01-20T18:11:16.904Z,98973.81
2024-01-20T18:13:45.181Z,98993.16
2024-01-20T18:16:13.392Z,98986.34
2024-01-20T18:18:41.597Z,98991.38
2024-01-20T18:21:10.449Z,98990.53
2024-01-20T18:23:38.709Z,98989.72
2024-01-20T18:26:06.949Z,98996.47
2024-01-20T18:28:36.399Z,98993.19
2024-01-20T18:31:08.096Z,98993.22
2024-01-20T18:33:36.927Z,98991.53
2024-01-20T18:36:06.069Z,98993.19
2024-01-20T18:38:34.267Z,98999.06
2024-01-20T18:41:04.021Z,99001.63
2024-01-20T18:43:32.309Z,99003.31
2024-01-20T18:46:01.823Z,98999.16
2024-01-20T18:48:30.224Z,99003.38
2024-01-20T18:50:58.462Z,98992.47
2024-01-20T18:53:26.558Z,98990.00
2024-01-20T18:55:54.876Z,98993.41
2024-01-20T18:58:23.009Z,98998.47
2024-01-20T19:00:52.121Z,98994.31
2024-01-20T19:03:21.731Z,98998.53
2024-01-20T19:05:49.845Z,99005.28
2024-01-20T19:08:17.973Z,98991.84
2024-01-20T19:10:46.082Z,98995.22
2024-01-20T19:13:14.205Z,99003.56
2024-01-20T19:15:42.367Z,99004.41
2024-01-20T19:18:10.677Z,98998.47
2024-01-20T19:20:41.346Z,99002.69
2024-01-20T19:23:09.623Z,99010.28
2024-01-20T19:25:37.718Z,98998.56
2024-01-20T19:28:06.271Z,99006.97
2024-01-20T19:30:34.416Z,99007.81
2024-01-20T19:33:05.882Z,99009.53
2024-01-20T19:35:34.569Z,99019.59
2024-01-20T19:38:04.444Z,99007.88
2024-01-20T19:40:32.612Z,99007.88
2024-01-20T19:43:00.728Z,99009.56
2024-01-20T19:45:28.931Z,99002.84
2024-01-20T19:47:57.173Z,99009.59
2024-01-20T19:50:25.328Z,99010.44
2024-01-20T19:52:53.832Z,99012.09
2024-01-20T19:55:23.296Z,99007.94
2024-01-20T19:57:51.428Z,99013.78
2024-01-20T20:00:21.351Z,99007.09
2024-01-20T20:02:49.792Z,99008.75
2024-01-20T20:05:18.073Z,99002.03
2024-01-20T20:07:46.352Z,99001.22
2024-01-20T20:10:14.519Z,99004.53
2024-01-20T20:12:44.246Z,99003.72
2024-01-20T20:15:12.587Z,98998.69
2024-01-20T20:17:40.800Z,98996.19
2024-01-20T20:20:10.353Z,99002.88
2024-01-20T20:22:38.497Z,99001.19
2024-01-20T20:25:07.188Z,98997.03
2024-01-20T20:27:35.395Z,99000.38
2024-01-20T20:30:05.820Z,98996.19
2024-01-20T20:32:34.049Z,99001.19
2024-01-20T20:35:02.224Z,98994.53
2024-01-20T20:37:30.925Z,98997.03
2024-01-20T20:39:59.080Z,99003.72
2024-01-20T20:42:27.306Z,98993.69
2024-01-20T20:44:55.472Z,99002.06
2024-01-20T20:47:24.987Z,98997.03
2024-01-20T20:49:55.026Z,98994.53
2024-01-20T20:52:23.289Z,98992.84
2024-01-20T20:54:51.417Z,98993.66
2024-01-20T20:57:20.044Z,98993.69
2024-01-20T20:59:48.165Z,98993.69
2024-01-20T21:02:16.352Z,98981.13
2024-01-20T21:04:46.231Z,98982.81
2024-01-20T21:07:14.564Z,98990.31
2024-01-20T21:09:45.010Z,98992.84
2024-01-20T21:12:14.838Z,98987.81
2024-01-20T21:14:43.036Z,98989.47
2024-01-20T21:17:11.249Z,98985.31
2024-01-20T21:19:39.656Z,98986.16
2024-01-20T21:22:09.289Z,98987.78
2024-01-20T21:24:37.459Z,98988.63
2024-01-20T21:27:06.005Z,98981.91
2024-01-20T21:29:34.185Z,98982.72
2024-01-20T21:32:02.289Z,98974.34
2024-01-20T21:34:30.483Z,98971.84
2024-01-20T21:36:58.713Z,98972.69
2024-01-20T21:39:29.150Z,98961.81
2024-01-20T21:41:57.288Z,98957.63
2024-01-20T21:44:26.785Z,98958.47
2024-01-20T21:46:54.983Z,98963.50
2024-01-20T21:49:23.674Z,98953.41
2024-01-20T21:51:53.059Z,98962.63
2024-01-20T21:54:21.230Z,98959.31
2024-01-20T21:56:50.725Z,98960.13
2024-01-20T21:59:19.131Z,98962.63
2024-01-20T22:01:47.264Z,98951.75
2024-01-20T22:04:15.524Z,98950.88
2024-01-20T22:06:44.419Z,98946.66
2024-01-20T22:09:12.650Z,98943.28
2024-01-20T22:11:40.753Z,98945.75
2024-01-20T22:14:10.219Z,98952.47
2024-01-20T22:16:38.356Z,98947.47
2024-01-20T22:19:06.560Z,98953.34
2024-01-20T22:21:36.605Z,98952.50
2024-01-20T22:24:05.700Z,98956.72
2024-01-20T22:26:34.319Z,98960.09
2024-01-20T22:29:10.764Z,98965.09
2024-01-20T22:31:48.120Z,98957.56
2024-01-20T22:34:16.269Z,98954.22
2024-01-20T22:36:44.679Z,98956.72
2024-01-20T22:39:14.415Z,98959.25
2024-01-20T22:41:42.781Z,98960.91
2024-01-20T22:44:12.281Z,98966.75
2024-01-20T22:46:40.389Z,98955.09
2024-01-20T22:49:10.231Z,98957.63
2024-01-20T22:51:38.445Z,98952.59
2024-01-20T22:54:06.603Z,98954.28
2024-01-20T22:56:34.722Z,98951.78
2024-01-20T22:59:03.891Z,98950.09
2024-01-20T23:01:32.356Z,98950.06
2024-01-20T23:04:00.558Z,98950.06
2024-01-20T23:06:30.961Z,98955.91
2024-01-20T23:08:59.077Z,98951.72
2024-01-20T23:11:27.194Z,98952.56
2024-01-20T23:13:55.308Z,98949.19
2024-01-20T23:16:23.540Z,98946.69
2024-01-20T23:18:53.725Z,98946.69
2024-01-20T23:21:22.686Z,98942.47
2024-01-20T23:23:52.226Z,98944.16
2024-01-20T23:26:20.331Z,98939.13
2024-01-20T23:28:48.458Z,98942.47
2024-01-20T23:31:16.684Z,98928.28
2024-01-20T23:33:44.916Z,98926.59
2024-01-20T23:36:14.065Z,98926.63
2024-01-20T23:38:42.153Z,98931.69
2024-01-20T23:41:13.050Z,98935.84
2024-01-20T23:43:41.285Z,98930.03
2024-01-20T23:46:11.386Z,98927.50
2024-01-20T23:48:39.771Z,98926.69
2024-01-20T23:51:08.154Z,98921.66
2024-01-20T23:53:36.321Z,98915.78
2024-01-20T23:56:04.817Z,98922.47
2024-01-20T23:58:34.523Z,98907.44
